sensor_id;sensor_type;location;lat;lon;timestamp;P1;durP1;ratioP1;P2;durP2;ratioP2
82722;SDS011;72450;42.008;21.356;2024-03-02T00:01:48;21.00;;;14.43;;
82722;SDS011;72450;42.008;21.356;2024-03-02T00:04:14;21.38;;;13.93;;
82722;SDS011;72450;42.008;21.356;2024-03-02T00:06:40;23.08;;;15.60;;
82722;SDS011;72450;42.008;21.356;2024-03-02T00:09:06;19.50;;;14.35;;
82722;SDS011;72450;42.008;21.356;2024-03-02T00:11:34;26.85;;;15.82;;
82722;SDS011;72450;42.008;21.356;2024-03-02T00:14:01;30.73;;;17.73;;
82722;SDS011;72450;42.008;21.356;2024-03-02T00:16:31;30.52;;;18.13;;
82722;SDS011;72450;42.008;21.356;2024-03-02T00:19:04;23.02;;;15.00;;
82722;SDS011;72450;42.008;21.356;2024-03-02T00:21:31;26.80;;;18.13;;
82722;SDS011;72450;42.008;21.356;2024-03-02T00:23:57;30.50;;;21.02;;
82722;SDS011;72450;42.008;21.356;2024-03-02T00:26:24;29.17;;;19.50;;
82722;SDS011;72450;42.008;21.356;2024-03-02T00:28:50;32.55;;;18.23;;
82722;SDS011;72450;42.008;21.356;2024-03-02T00:31:20;29.00;;;17.45;;
82722;SDS011;72450;42.008;21.356;2024-03-02T00:33:47;29.13;;;18.02;;
82722;SDS011;72450;42.008;21.356;2024-03-02T00:36:14;31.08;;;20.05;;
82722;SDS011;72450;42.008;21.356;2024-03-02T00:38:49;35.53;;;20.17;;
82722;SDS011;72450;42.008;21.356;2024-03-02T00:41:17;33.22;;;20.65;;
82722;SDS011;72450;42.008;21.356;2024-03-02T00:46:18;30.90;;;20.60;;
82722;SDS011;72450;42.008;21.356;2024-03-02T00:48:54;30.25;;;19.63;;
82722;SDS011;72450;42.008;21.356;2024-03-02T00:51:23;30.67;;;21.70;;
82722;SDS011;72450;42.008;21.356;2024-03-02T00:53:51;31.80;;;23.52;;
82722;SDS011;72450;42.008;21.356;2024-03-02T00:56:17;32.65;;;21.75;;
82722;SDS011;72450;42.008;21.356;2024-03-02T00:58:44;31.40;;;21.58;;
82722;SDS011;72450;42.008;21.356;2024-03-02T01:01:10;33.97;;;23.27;;
82722;SDS011;72450;42.008;21.356;2024-03-02T01:03:36;37.92;;;24.73;;
82722;SDS011;72450;42.008;21.356;2024-03-02T01:06:04;34.55;;;23.38;;
82722;SDS011;72450;42.008;21.356;2024-03-02T01:08:30;30.77;;;21.80;;
82722;SDS011;72450;42.008;21.356;2024-03-02T01:10:56;28.40;;;19.15;;
82722;SDS011;72450;42.008;21.356;2024-03-02T01:13:22;32.05;;;21.23;;
82722;SDS011;72450;42.008;21.356;2024-03-02T01:15:49;35.08;;;22.02;;
82722;SDS011;72450;42.008;21.356;2024-03-02T01:18:15;31.92;;;21.40;;
82722;SDS011;72450;42.008;21.356;2024-03-02T01:20:41;37.08;;;22.58;;
82722;SDS011;72450;42.008;21.356;2024-03-02T01:23:07;30.40;;;21.48;;
82722;SDS011;72450;42.008;21.356;2024-03-02T01:25:33;30.08;;;20.80;;
82722;SDS011;72450;42.008;21.356;2024-03-02T01:28:00;33.58;;;23.33;;
82722;SDS011;72450;42.008;21.356;2024-03-02T01:30:26;33.67;;;22.80;;
82722;SDS011;72450;42.008;21.356;2024-03-02T01:32:52;35.90;;;23.08;;
82722;SDS011;72450;42.008;21.356;2024-03-02T01:35:19;35.75;;;23.80;;
82722;SDS011;72450;42.008;21.356;2024-03-02T01:37:45;36.65;;;24.45;;
82722;SDS011;72450;42.008;21.356;2024-03-02T01:40:11;37.10;;;24.25;;
82722;SDS011;72450;42.008;21.356;2024-03-02T01:42:40;29.13;;;19.00;;
82722;SDS011;72450;42.008;21.356;2024-03-02T01:45:06;28.48;;;19.80;;
82722;SDS011;72450;42.008;21.356;2024-03-02T01:47:33;27.08;;;19.65;;
82722;SDS011;72450;42.008;21.356;2024-03-02T01:49:59;26.48;;;19.35;;
82722;SDS011;72450;42.008;21.356;2024-03-02T01:52:26;29.15;;;19.90;;
82722;SDS011;72450;42.008;21.356;2024-03-02T01:54:52;39.20;;;24.70;;
82722;SDS011;72450;42.008;21.356;2024-03-02T01:57:19;32.67;;;22.48;;
82722;SDS011;72450;42.008;21.356;2024-03-02T01:59:45;33.95;;;21.52;;
82722;SDS011;72450;42.008;21.356;2024-03-02T02:02:16;38.58;;;26.35;;
82722;SDS011;72450;42.008;21.356;2024-03-02T02:04:42;43.65;;;26.30;;
82722;SDS011;72450;42.008;21.356;2024-03-02T02:07:09;48.97;;;25.75;;
82722;SDS011;72450;42.008;21.356;2024-03-02T02:09:35;65.03;;;32.80;;
82722;SDS011;72450;42.008;21.356;2024-03-02T02:12:01;71.63;;;34.35;;
82722;SDS011;72450;42.008;21.356;2024-03-02T02:14:29;59.17;;;30.27;;
82722;SDS011;72450;42.008;21.356;2024-03-02T02:16:55;56.42;;;31.13;;
82722;SDS011;72450;42.008;21.356;2024-03-02T02:19:22;46.33;;;27.55;;
82722;SDS011;72450;42.008;21.356;2024-03-02T02:21:48;36.50;;;23.42;;
82722;SDS011;72450;42.008;21.356;2024-03-02T02:24:14;39.92;;;22.98;;
82722;SDS011;72450;42.008;21.356;2024-03-02T02:26:40;35.88;;;21.88;;
82722;SDS011;72450;42.008;21.356;2024-03-02T02:29:06;36.28;;;21.95;;
82722;SDS011;72450;42.008;21.356;2024-03-02T02:31:39;37.80;;;20.70;;
82722;SDS011;72450;42.008;21.356;2024-03-02T02:34:05;30.58;;;20.45;;
82722;SDS011;72450;42.008;21.356;2024-03-02T02:36:32;33.45;;;20.67;;
82722;SDS011;72450;42.008;21.356;2024-03-02T02:39:01;31.42;;;19.73;;
82722;SDS011;72450;42.008;21.356;2024-03-02T02:41:28;31.60;;;21.05;;
82722;SDS011;72450;42.008;21.356;2024-03-02T02:43:55;37.35;;;22.52;;
82722;SDS011;72450;42.008;21.356;2024-03-02T02:46:21;33.40;;;19.80;;
82722;SDS011;72450;42.008;21.356;2024-03-02T02:48:47;33.78;;;19.88;;
82722;SDS011;72450;42.008;21.356;2024-03-02T02:51:13;39.22;;;22.67;;
82722;SDS011;72450;42.008;21.356;2024-03-02T02:53:39;37.65;;;21.15;;
82722;SDS011;72450;42.008;21.356;2024-03-02T02:56:09;34.00;;;20.10;;
82722;SDS011;72450;42.008;21.356;2024-03-02T02:58:35;41.58;;;23.20;;
82722;SDS011;72450;42.008;21.356;2024-03-02T03:01:01;40.72;;;22.20;;
82722;SDS011;72450;42.008;21.356;2024-03-02T03:03:27;39.35;;;21.42;;
82722;SDS011;72450;42.008;21.356;2024-03-02T03:05:53;39.25;;;23.38;;
82722;SDS011;72450;42.008;21.356;2024-03-02T03:08:19;41.88;;;22.58;;
82722;SDS011;72450;42.008;21.356;2024-03-02T03:10:45;41.35;;;21.98;;
82722;SDS011;72450;42.008;21.356;2024-03-02T03:13:11;41.63;;;23.38;;
82722;SDS011;72450;42.008;21.356;2024-03-02T03:15:37;42.65;;;25.67;;
82722;SDS011;72450;42.008;21.356;2024-03-02T03:18:04;40.13;;;22.48;;
82722;SDS011;72450;42.008;21.356;2024-03-02T03:20:30;37.70;;;23.30;;
82722;SDS011;72450;42.008;21.356;2024-03-02T03:22:56;37.17;;;23.13;;
82722;SDS011;72450;42.008;21.356;2024-03-02T03:25:23;37.15;;;22.10;;
82722;SDS011;72450;42.008;21.356;2024-03-02T03:27:49;37.97;;;20.77;;
82722;SDS011;72450;42.008;21.356;2024-03-02T03:30:17;33.88;;;19.98;;
82722;SDS011;72450;42.008;21.356;2024-03-02T03:32:43;37.70;;;23.10;;
82722;SDS011;72450;42.008;21.356;2024-03-02T03:35:09;39.08;;;23.63;;
82722;SDS011;72450;42.008;21.356;2024-03-02T03:37:37;30.08;;;16.75;;
82722;SDS011;72450;42.008;21.356;2024-03-02T03:40:03;35.38;;;21.38;;
82722;SDS011;72450;42.008;21.356;2024-03-02T03:42:38;35.30;;;23.15;;
82722;SDS011;72450;42.008;21.356;2024-03-02T03:45:04;38.83;;;23.20;;
82722;SDS011;72450;42.008;21.356;2024-03-02T03:47:31;37.85;;;22.25;;
82722;SDS011;72450;42.008;21.356;2024-03-02T03:49:57;40.45;;;22.00;;
82722;SDS011;72450;42.008;21.356;2024-03-02T03:52:24;41.58;;;23.25;;
82722;SDS011;72450;42.008;21.356;2024-03-02T03:54:50;40.55;;;24.60;;
82722;SDS011;72450;42.008;21.356;2024-03-02T03:57:16;48.47;;;22.80;;
82722;SDS011;72450;42.008;21.356;2024-03-02T03:59:42;39.97;;;22.35;;
82722;SDS011;72450;42.008;21.356;2024-03-02T04:02:09;45.08;;;26.83;;
82722;SDS011;72450;42.008;21.356;2024-03-02T04:04:37;45.30;;;26.58;;
82722;SDS011;72450;42.008;21.356;2024-03-02T04:07:03;42.53;;;23.85;;
82722;SDS011;72450;42.008;21.356;2024-03-02T04:09:30;48.10;;;28.23;;
82722;SDS011;72450;42.008;21.356;2024-03-02T04:11:56;45.13;;;25.40;;
82722;SDS011;72450;42.008;21.356;2024-03-02T04:14:22;42.40;;;25.85;;
82722;SDS011;72450;42.008;21.356;2024-03-02T04:16:48;43.95;;;26.38;;
82722;SDS011;72450;42.008;21.356;2024-03-02T04:19:14;47.05;;;25.55;;
82722;SDS011;72450;42.008;21.356;2024-03-02T04:21:41;46.15;;;24.58;;
82722;SDS011;72450;42.008;21.356;2024-03-02T04:24:07;45.00;;;26.90;;
82722;SDS011;72450;42.008;21.356;2024-03-02T04:26:33;46.38;;;26.85;;
82722;SDS011;72450;42.008;21.356;2024-03-02T04:28:59;43.95;;;23.48;;
82722;SDS011;72450;42.008;21.356;2024-03-02T04:31:25;42.05;;;25.08;;
82722;SDS011;72450;42.008;21.356;2024-03-02T04:33:51;50.80;;;29.55;;
82722;SDS011;72450;42.008;21.356;2024-03-02T04:36:17;42.28;;;25.85;;
82722;SDS011;72450;42.008;21.356;2024-03-02T04:38:43;45.65;;;28.27;;
82722;SDS011;72450;42.008;21.356;2024-03-02T04:41:09;46.28;;;28.58;;
82722;SDS011;72450;42.008;21.356;2024-03-02T04:43:35;46.50;;;24.67;;
82722;SDS011;72450;42.008;21.356;2024-03-02T04:46:01;43.67;;;24.00;;
82722;SDS011;72450;42.008;21.356;2024-03-02T04:48:28;45.47;;;26.25;;
82722;SDS011;72450;42.008;21.356;2024-03-02T04:50:54;42.50;;;23.25;;
82722;SDS011;72450;42.008;21.356;2024-03-02T04:53:20;41.15;;;22.67;;
82722;SDS011;72450;42.008;21.356;2024-03-02T04:55:46;43.17;;;24.23;;
82722;SDS011;72450;42.008;21.356;2024-03-02T04:58:30;38.75;;;22.13;;
82722;SDS011;72450;42.008;21.356;2024-03-02T05:00:56;33.63;;;21.95;;
82722;SDS011;72450;42.008;21.356;2024-03-02T05:03:23;37.92;;;23.80;;
82722;SDS011;72450;42.008;21.356;2024-03-02T05:05:49;32.88;;;20.85;;
82722;SDS011;72450;42.008;21.356;2024-03-02T05:08:15;33.85;;;20.02;;
82722;SDS011;72450;42.008;21.356;2024-03-02T05:10:42;32.60;;;21.70;;
82722;SDS011;72450;42.008;21.356;2024-03-02T05:13:08;36.88;;;21.92;;
82722;SDS011;72450;42.008;21.356;2024-03-02T05:15:34;31.80;;;19.30;;
82722;SDS011;72450;42.008;21.356;2024-03-02T05:18:00;32.45;;;21.40;;
82722;SDS011;72450;42.008;21.356;2024-03-02T05:20:30;33.90;;;19.60;;
82722;SDS011;72450;42.008;21.356;2024-03-02T05:22:56;32.30;;;19.80;;
82722;SDS011;72450;42.008;21.356;2024-03-02T05:25:22;35.17;;;23.45;;
82722;SDS011;72450;42.008;21.356;2024-03-02T05:27:48;34.03;;;20.55;;
82722;SDS011;72450;42.008;21.356;2024-03-02T05:30:14;29.23;;;19.20;;
82722;SDS011;72450;42.008;21.356;2024-03-02T05:32:40;34.78;;;22.17;;
82722;SDS011;72450;42.008;21.356;2024-03-02T05:35:06;35.63;;;22.65;;
82722;SDS011;72450;42.008;21.356;2024-03-02T05:37:33;35.38;;;22.40;;
82722;SDS011;72450;42.008;21.356;2024-03-02T05:39:59;38.28;;;25.00;;
82722;SDS011;72450;42.008;21.356;2024-03-02T05:42:25;35.17;;;21.27;;
82722;SDS011;72450;42.008;21.356;2024-03-02T05:44:52;35.08;;;20.88;;
82722;SDS011;72450;42.008;21.356;2024-03-02T05:47:19;63.00;;;37.65;;
82722;SDS011;72450;42.008;21.356;2024-03-02T05:49:45;49.42;;;28.40;;
82722;SDS011;72450;42.008;21.356;2024-03-02T05:52:12;44.28;;;24.63;;
82722;SDS011;72450;42.008;21.356;2024-03-02T05:54:38;41.97;;;25.83;;
82722;SDS011;72450;42.008;21.356;2024-03-02T05:57:04;42.42;;;24.63;;
82722;SDS011;72450;42.008;21.356;2024-03-02T05:59:52;36.60;;;20.95;;
82722;SDS011;72450;42.008;21.356;2024-03-02T06:02:18;35.88;;;23.13;;
82722;SDS011;72450;42.008;21.356;2024-03-02T06:04:44;38.28;;;21.77;;
82722;SDS011;72450;42.008;21.356;2024-03-02T06:07:11;36.03;;;21.23;;
82722;SDS011;72450;42.008;21.356;2024-03-02T06:09:37;39.58;;;23.40;;
82722;SDS011;72450;42.008;21.356;2024-03-02T06:12:03;41.97;;;24.55;;
82722;SDS011;72450;42.008;21.356;2024-03-02T06:14:29;41.38;;;24.77;;
82722;SDS011;72450;42.008;21.356;2024-03-02T06:16:55;42.38;;;25.75;;
82722;SDS011;72450;42.008;21.356;2024-03-02T06:19:21;44.97;;;26.15;;
82722;SDS011;72450;42.008;21.356;2024-03-02T06:21:47;47.17;;;27.52;;
82722;SDS011;72450;42.008;21.356;2024-03-02T06:24:13;41.13;;;25.27;;
82722;SDS011;72450;42.008;21.356;2024-03-02T06:26:39;36.10;;;23.02;;
82722;SDS011;72450;42.008;21.356;2024-03-02T06:29:05;34.17;;;20.25;;
82722;SDS011;72450;42.008;21.356;2024-03-02T06:31:32;36.70;;;22.00;;
82722;SDS011;72450;42.008;21.356;2024-03-02T06:33:58;41.15;;;25.00;;
82722;SDS011;72450;42.008;21.356;2024-03-02T06:36:24;32.45;;;20.88;;
82722;SDS011;72450;42.008;21.356;2024-03-02T06:38:50;37.38;;;23.35;;
82722;SDS011;72450;42.008;21.356;2024-03-02T06:41:16;42.22;;;24.58;;
82722;SDS011;72450;42.008;21.356;2024-03-02T06:43:43;45.65;;;25.85;;
82722;SDS011;72450;42.008;21.356;2024-03-02T06:46:09;40.13;;;25.35;;
82722;SDS011;72450;42.008;21.356;2024-03-02T06:48:35;42.92;;;26.02;;
82722;SDS011;72450;42.008;21.356;2024-03-02T06:51:01;37.95;;;23.25;;
82722;SDS011;72450;42.008;21.356;2024-03-02T06:53:27;38.83;;;24.00;;
82722;SDS011;72450;42.008;21.356;2024-03-02T06:55:53;48.38;;;26.90;;
82722;SDS011;72450;42.008;21.356;2024-03-02T06:58:19;32.75;;;18.77;;
82722;SDS011;72450;42.008;21.356;2024-03-02T07:00:45;33.53;;;21.27;;
82722;SDS011;72450;42.008;21.356;2024-03-02T07:03:12;28.45;;;15.57;;
82722;SDS011;72450;42.008;21.356;2024-03-02T07:05:38;28.60;;;17.17;;
82722;SDS011;72450;42.008;21.356;2024-03-02T07:08:05;18.70;;;11.60;;
82722;SDS011;72450;42.008;21.356;2024-03-02T07:10:31;26.13;;;17.23;;
82722;SDS011;72450;42.008;21.356;2024-03-02T07:12:57;23.75;;;14.57;;
82722;SDS011;72450;42.008;21.356;2024-03-02T07:15:23;24.77;;;14.60;;
82722;SDS011;72450;42.008;21.356;2024-03-02T07:17:52;22.73;;;13.02;;
82722;SDS011;72450;42.008;21.356;2024-03-02T07:20:18;24.13;;;14.35;;
82722;SDS011;72450;42.008;21.356;2024-03-02T07:22:44;22.83;;;14.20;;
82722;SDS011;72450;42.008;21.356;2024-03-02T07:25:10;19.15;;;14.10;;
82722;SDS011;72450;42.008;21.356;2024-03-02T07:27:37;18.42;;;12.70;;
82722;SDS011;72450;42.008;21.356;2024-03-02T07:30:03;17.45;;;10.77;;
82722;SDS011;72450;42.008;21.356;2024-03-02T07:32:29;18.10;;;11.63;;
82722;SDS011;72450;42.008;21.356;2024-03-02T07:34:55;15.40;;;9.65;;
82722;SDS011;72450;42.008;21.356;2024-03-02T07:37:24;15.18;;;10.73;;
82722;SDS011;72450;42.008;21.356;2024-03-02T07:39:50;19.73;;;13.43;;
82722;SDS011;72450;42.008;21.356;2024-03-02T07:42:17;14.52;;;9.30;;
82722;SDS011;72450;42.008;21.356;2024-03-02T07:44:44;12.63;;;7.00;;
82722;SDS011;72450;42.008;21.356;2024-03-02T07:47:10;15.05;;;10.63;;
82722;SDS011;72450;42.008;21.356;2024-03-02T07:49:36;15.18;;;9.48;;
82722;SDS011;72450;42.008;21.356;2024-03-02T07:52:02;12.63;;;8.95;;
82722;SDS011;72450;42.008;21.356;2024-03-02T07:54:29;13.52;;;7.38;;
82722;SDS011;72450;42.008;21.356;2024-03-02T07:56:55;13.05;;;8.75;;
82722;SDS011;72450;42.008;21.356;2024-03-02T07:59:21;14.23;;;9.38;;
82722;SDS011;72450;42.008;21.356;2024-03-02T08:01:48;16.30;;;10.98;;
82722;SDS011;72450;42.008;21.356;2024-03-02T08:04:15;15.02;;;9.80;;
82722;SDS011;72450;42.008;21.356;2024-03-02T08:06:42;10.40;;;7.07;;
82722;SDS011;72450;42.008;21.356;2024-03-02T08:09:08;13.52;;;9.13;;
82722;SDS011;72450;42.008;21.356;2024-03-02T08:11:35;12.43;;;7.80;;
82722;SDS011;72450;42.008;21.356;2024-03-02T08:14:02;15.23;;;7.70;;
82722;SDS011;72450;42.008;21.356;2024-03-02T08:16:28;11.38;;;7.65;;
82722;SDS011;72450;42.008;21.356;2024-03-02T08:18:54;10.15;;;7.45;;
82722;SDS011;72450;42.008;21.356;2024-03-02T08:21:23;8.77;;;6.38;;
82722;SDS011;72450;42.008;21.356;2024-03-02T08:23:49;8.73;;;6.00;;
82722;SDS011;72450;42.008;21.356;2024-03-02T08:26:15;9.98;;;7.03;;
82722;SDS011;72450;42.008;21.356;2024-03-02T08:28:41;9.07;;;6.18;;
82722;SDS011;72450;42.008;21.356;2024-03-02T08:31:08;9.10;;;6.65;;
82722;SDS011;72450;42.008;21.356;2024-03-02T08:33:34;12.13;;;7.93;;
82722;SDS011;72450;42.008;21.356;2024-03-02T08:36:00;13.00;;;7.57;;
82722;SDS011;72450;42.008;21.356;2024-03-02T08:38:27;12.68;;;8.15;;
82722;SDS011;72450;42.008;21.356;2024-03-02T08:40:54;11.05;;;8.35;;
82722;SDS011;72450;42.008;21.356;2024-03-02T08:43:20;14.93;;;8.95;;
82722;SDS011;72450;42.008;21.356;2024-03-02T08:45:47;13.75;;;8.45;;
82722;SDS011;72450;42.008;21.356;2024-03-02T08:48:13;13.18;;;7.88;;
82722;SDS011;72450;42.008;21.356;2024-03-02T08:50:39;10.52;;;7.28;;
82722;SDS011;72450;42.008;21.356;2024-03-02T08:53:06;13.23;;;7.90;;
82722;SDS011;72450;42.008;21.356;2024-03-02T08:55:32;12.45;;;8.85;;
82722;SDS011;72450;42.008;21.356;2024-03-02T08:57:58;15.48;;;9.15;;
82722;SDS011;72450;42.008;21.356;2024-03-02T09:00:24;11.63;;;7.63;;
82722;SDS011;72450;42.008;21.356;2024-03-02T09:02:50;11.80;;;7.53;;
82722;SDS011;72450;42.008;21.356;2024-03-02T09:05:16;11.98;;;7.72;;
82722;SDS011;72450;42.008;21.356;2024-03-02T09:07:42;12.82;;;8.48;;
82722;SDS011;72450;42.008;21.356;2024-03-02T09:10:08;13.05;;;8.10;;
82722;SDS011;72450;42.008;21.356;2024-03-02T09:12:35;18.08;;;6.72;;
82722;SDS011;72450;42.008;21.356;2024-03-02T09:15:01;12.15;;;7.55;;
82722;SDS011;72450;42.008;21.356;2024-03-02T09:17:34;9.63;;;6.45;;
82722;SDS011;72450;42.008;21.356;2024-03-02T09:20:00;8.88;;;6.55;;
82722;SDS011;72450;42.008;21.356;2024-03-02T09:22:26;11.52;;;7.65;;
82722;SDS011;72450;42.008;21.356;2024-03-02T09:24:52;12.52;;;6.93;;
82722;SDS011;72450;42.008;21.356;2024-03-02T09:27:18;8.90;;;6.45;;
82722;SDS011;72450;42.008;21.356;2024-03-02T09:29:44;10.32;;;6.00;;
82722;SDS011;72450;42.008;21.356;2024-03-02T09:32:12;12.98;;;6.50;;
82722;SDS011;72450;42.008;21.356;2024-03-02T09:34:40;11.40;;;5.93;;
82722;SDS011;72450;42.008;21.356;2024-03-02T09:37:06;10.30;;;6.18;;
82722;SDS011;72450;42.008;21.356;2024-03-02T09:39:32;11.85;;;6.97;;
82722;SDS011;72450;42.008;21.356;2024-03-02T09:41:59;8.18;;;5.47;;
82722;SDS011;72450;42.008;21.356;2024-03-02T09:44:26;12.23;;;6.43;;
82722;SDS011;72450;42.008;21.356;2024-03-02T09:46:52;7.55;;;5.18;;
82722;SDS011;72450;42.008;21.356;2024-03-02T09:49:18;8.57;;;5.20;;
82722;SDS011;72450;42.008;21.356;2024-03-02T09:51:46;10.30;;;6.25;;
82722;SDS011;72450;42.008;21.356;2024-03-02T09:54:12;10.98;;;6.22;;
82722;SDS011;72450;42.008;21.356;2024-03-02T09:56:39;8.50;;;4.50;;
82722;SDS011;72450;42.008;21.356;2024-03-02T09:59:05;7.25;;;4.68;;
82722;SDS011;72450;42.008;21.356;2024-03-02T10:01:31;9.10;;;5.63;;
82722;SDS011;72450;42.008;21.356;2024-03-02T10:04:00;8.52;;;5.35;;
82722;SDS011;72450;42.008;21.356;2024-03-02T10:06:29;11.15;;;5.88;;
82722;SDS011;72450;42.008;21.356;2024-03-02T10:08:56;8.60;;;6.28;;
82722;SDS011;72450;42.008;21.356;2024-03-02T10:13:59;11.77;;;7.05;;
82722;SDS011;72450;42.008;21.356;2024-03-02T10:16:29;10.25;;;5.70;;
82722;SDS011;72450;42.008;21.356;2024-03-02T10:18:55;8.30;;;4.85;;
82722;SDS011;72450;42.008;21.356;2024-03-02T10:21:21;7.72;;;5.13;;
82722;SDS011;72450;42.008;21.356;2024-03-02T10:23:49;10.02;;;5.45;;
82722;SDS011;72450;42.008;21.356;2024-03-02T10:26:18;12.10;;;6.28;;
82722;SDS011;72450;42.008;21.356;2024-03-02T10:28:47;8.57;;;5.10;;
82722;SDS011;72450;42.008;21.356;2024-03-02T10:31:14;9.18;;;5.68;;
82722;SDS011;72450;42.008;21.356;2024-03-02T10:33:40;11.07;;;5.32;;
82722;SDS011;72450;42.008;21.356;2024-03-02T10:36:06;7.50;;;5.30;;
82722;SDS011;72450;42.008;21.356;2024-03-02T10:40:59;9.05;;;4.50;;
82722;SDS011;72450;42.008;21.356;2024-03-02T10:43:25;8.70;;;4.97;;
82722;SDS011;72450;42.008;21.356;2024-03-02T10:45:51;8.35;;;4.65;;
82722;SDS011;72450;42.008;21.356;2024-03-02T10:48:18;6.93;;;4.90;;
82722;SDS011;72450;42.008;21.356;2024-03-02T10:50:46;7.07;;;4.65;;
82722;SDS011;72450;42.008;21.356;2024-03-02T10:53:12;13.25;;;6.03;;
82722;SDS011;72450;42.008;21.356;2024-03-02T10:55:38;8.32;;;5.30;;
82722;SDS011;72450;42.008;21.356;2024-03-02T10:58:04;7.38;;;4.40;;
82722;SDS011;72450;42.008;21.356;2024-03-02T11:00:33;7.20;;;4.00;;
82722;SDS011;72450;42.008;21.356;2024-03-02T11:03:06;7.32;;;3.70;;
82722;SDS011;72450;42.008;21.356;2024-03-02T11:05:35;6.32;;;3.85;;
82722;SDS011;72450;42.008;21.356;2024-03-02T11:08:02;10.85;;;4.45;;
82722;SDS011;72450;42.008;21.356;2024-03-02T11:10:31;6.53;;;3.80;;
82722;SDS011;72450;42.008;21.356;2024-03-02T11:13:02;9.38;;;5.03;;
82722;SDS011;72450;42.008;21.356;2024-03-02T11:15:29;10.93;;;5.75;;
82722;SDS011;72450;42.008;21.356;2024-03-02T11:17:56;11.68;;;5.55;;
82722;SDS011;72450;42.008;21.356;2024-03-02T11:20:22;10.30;;;6.18;;
82722;SDS011;72450;42.008;21.356;2024-03-02T11:22:49;10.50;;;6.32;;
82722;SDS011;72450;42.008;21.356;2024-03-02T11:25:23;9.88;;;5.07;;
82722;SDS011;72450;42.008;21.356;2024-03-02T11:33:00;7.28;;;4.50;;
82722;SDS011;72450;42.008;21.356;2024-03-02T11:35:36;6.95;;;4.50;;
82722;SDS011;72450;42.008;21.356;2024-03-02T11:38:02;8.00;;;4.65;;
82722;SDS011;72450;42.008;21.356;2024-03-02T11:40:28;11.30;;;5.15;;
82722;SDS011;72450;42.008;21.356;2024-03-02T11:42:55;8.02;;;5.22;;
82722;SDS011;72450;42.008;21.356;2024-03-02T11:45:25;11.52;;;5.20;;
82722;SDS011;72450;42.008;21.356;2024-03-02T11:47:53;7.82;;;5.40;;
82722;SDS011;72450;42.008;21.356;2024-03-02T11:53:05;8.73;;;5.25;;
82722;SDS011;72450;42.008;21.356;2024-03-02T11:55:31;13.30;;;5.78;;
82722;SDS011;72450;42.008;21.356;2024-03-02T11:58:01;13.10;;;5.35;;
82722;SDS011;72450;42.008;21.356;2024-03-02T12:00:28;11.98;;;5.68;;
82722;SDS011;72450;42.008;21.356;2024-03-02T12:03:04;9.80;;;5.20;;
82722;SDS011;72450;42.008;21.356;2024-03-02T12:05:31;10.63;;;5.70;;
82722;SDS011;72450;42.008;21.356;2024-03-02T12:07:58;12.32;;;6.80;;
82722;SDS011;72450;42.008;21.356;2024-03-02T12:10:24;14.00;;;6.65;;
82722;SDS011;72450;42.008;21.356;2024-03-02T12:13:00;14.10;;;5.75;;
82722;SDS011;72450;42.008;21.356;2024-03-02T12:15:31;8.07;;;4.88;;
82722;SDS011;72450;42.008;21.356;2024-03-02T12:17:57;13.20;;;5.53;;
82722;SDS011;72450;42.008;21.356;2024-03-02T12:22:51;11.77;;;5.35;;
82722;SDS011;72450;42.008;21.356;2024-03-02T12:25:20;7.60;;;5.30;;
82722;SDS011;72450;42.008;21.356;2024-03-02T12:27:46;8.32;;;4.85;;
82722;SDS011;72450;42.008;21.356;2024-03-02T12:32:42;9.82;;;5.00;;
82722;SDS011;72450;42.008;21.356;2024-03-02T12:35:12;11.00;;;5.88;;
82722;SDS011;72450;42.008;21.356;2024-03-02T12:37:44;8.88;;;5.10;;
82722;SDS011;72450;42.008;21.356;2024-03-02T12:40:11;10.45;;;5.25;;
82722;SDS011;72450;42.008;21.356;2024-03-02T12:42:38;10.48;;;5.97;;
82722;SDS011;72450;42.008;21.356;2024-03-02T12:45:04;9.73;;;5.18;;
82722;SDS011;72450;42.008;21.356;2024-03-02T12:47:30;6.78;;;4.63;;
82722;SDS011;72450;42.008;21.356;2024-03-02T12:49:56;9.73;;;4.75;;
82722;SDS011;72450;42.008;21.356;2024-03-02T12:52:22;9.18;;;5.53;;
82722;SDS011;72450;42.008;21.356;2024-03-02T12:54:49;9.82;;;5.38;;
82722;SDS011;72450;42.008;21.356;2024-03-02T12:57:18;9.90;;;4.40;;
82722;SDS011;72450;42.008;21.356;2024-03-02T12:59:45;11.30;;;4.95;;
82722;SDS011;72450;42.008;21.356;2024-03-02T13:02:18;8.93;;;5.25;;
82722;SDS011;72450;42.008;21.356;2024-03-02T13:07:12;9.32;;;4.97;;
82722;SDS011;72450;42.008;21.356;2024-03-02T13:09:39;12.63;;;5.35;;
82722;SDS011;72450;42.008;21.356;2024-03-02T13:12:05;8.27;;;4.32;;
82722;SDS011;72450;42.008;21.356;2024-03-02T13:14:35;9.15;;;4.55;;
82722;SDS011;72450;42.008;21.356;2024-03-02T13:17:01;10.85;;;4.07;;
82722;SDS011;72450;42.008;21.356;2024-03-02T13:19:30;8.52;;;4.78;;
82722;SDS011;72450;42.008;21.356;2024-03-02T13:21:57;10.23;;;4.40;;
82722;SDS011;72450;42.008;21.356;2024-03-02T13:24:23;12.10;;;6.15;;
82722;SDS011;72450;42.008;21.356;2024-03-02T13:26:54;9.77;;;5.25;;
82722;SDS011;72450;42.008;21.356;2024-03-02T13:29:23;9.75;;;5.68;;
82722;SDS011;72450;42.008;21.356;2024-03-02T13:31:49;11.40;;;5.15;;
82722;SDS011;72450;42.008;21.356;2024-03-02T13:34:16;11.38;;;3.95;;
82722;SDS011;72450;42.008;21.356;2024-03-02T13:36:42;9.00;;;3.65;;
82722;SDS011;72450;42.008;21.356;2024-03-02T13:39:08;8.70;;;4.30;;
82722;SDS011;72450;42.008;21.356;2024-03-02T13:41:35;10.13;;;5.63;;
82722;SDS011;72450;42.008;21.356;2024-03-02T13:44:02;10.95;;;5.13;;
82722;SDS011;72450;42.008;21.356;2024-03-02T13:46:28;10.18;;;4.38;;
82722;SDS011;72450;42.008;21.356;2024-03-02T13:48:54;11.77;;;4.45;;
82722;SDS011;72450;42.008;21.356;2024-03-02T13:51:21;13.80;;;5.05;;
82722;SDS011;72450;42.008;21.356;2024-03-02T13:53:47;7.75;;;4.10;;
82722;SDS011;72450;42.008;21.356;2024-03-02T13:56:13;12.85;;;4.75;;
82722;SDS011;72450;42.008;21.356;2024-03-02T13:58:40;8.82;;;4.28;;
82722;SDS011;72450;42.008;21.356;2024-03-02T14:01:06;14.15;;;5.45;;
82722;SDS011;72450;42.008;21.356;2024-03-02T14:03:32;13.02;;;5.78;;
82722;SDS011;72450;42.008;21.356;2024-03-02T14:05:58;10.10;;;4.80;;
82722;SDS011;72450;42.008;21.356;2024-03-02T14:08:24;15.02;;;6.40;;
82722;SDS011;72450;42.008;21.356;2024-03-02T14:10:50;14.48;;;5.75;;
82722;SDS011;72450;42.008;21.356;2024-03-02T14:13:16;9.68;;;4.95;;
82722;SDS011;72450;42.008;21.356;2024-03-02T14:15:42;12.45;;;4.18;;
82722;SDS011;72450;42.008;21.356;2024-03-02T14:18:09;8.57;;;3.88;;
82722;SDS011;72450;42.008;21.356;2024-03-02T14:20:35;11.07;;;4.80;;
82722;SDS011;72450;42.008;21.356;2024-03-02T14:23:02;8.25;;;3.95;;
82722;SDS011;72450;42.008;21.356;2024-03-02T14:25:29;9.93;;;4.22;;
82722;SDS011;72450;42.008;21.356;2024-03-02T14:27:58;6.65;;;3.65;;
82722;SDS011;72450;42.008;21.356;2024-03-02T14:30:24;8.02;;;3.78;;
82722;SDS011;72450;42.008;21.356;2024-03-02T14:32:50;7.53;;;3.40;;
82722;SDS011;72450;42.008;21.356;2024-03-02T14:35:16;6.65;;;3.10;;
82722;SDS011;72450;42.008;21.356;2024-03-02T14:37:43;9.50;;;3.60;;
82722;SDS011;72450;42.008;21.356;2024-03-02T14:40:09;8.18;;;3.35;;